sensor_id;sensor_type;location;lat;lon;timestamp;P1;durP1;ratioP1;P2;durP2;ratioP2
44428;SDS011;30134;47.866;-4.222;2023-06-14T00:00:36;9.85;;;8.40;;
44428;SDS011;30134;47.866;-4.222;2023-06-14T00:03:06;10.98;;;7.90;;
44428;SDS011;30134;47.866;-4.222;2023-06-14T00:05:37;10.15;;;7.28;;
44428;SDS011;30134;47.866;-4.222;2023-06-14T00:08:06;8.98;;;7.13;;
44428;SDS011;30134;47.866;-4.222;2023-06-14T00:10:33;130.05;;;91.18;;
44428;SDS011;30134;47.866;-4.222;2023-06-14T00:13:03;216.63;;;145.73;;
44428;SDS011;30134;47.866;-4.222;2023-06-14T00:15:30;299.67;;;220.50;;
44428;SDS011;30134;47.866;-4.222;2023-06-14T00:18:00;289.23;;;210.63;;
44428;SDS011;30134;47.866;-4.222;2023-06-14T00:20:27;216.25;;;151.65;;
44428;SDS011;30134;47.866;-4.222;2023-06-14T00:22:55;166.07;;;117.22;;
44428;SDS011;30134;47.866;-4.222;2023-06-14T00:25:22;137.77;;;96.30;;
44428;SDS011;30134;47.866;-4.222;2023-06-14T00:27:50;130.05;;;92.15;;
44428;SDS011;30134;47.866;-4.222;2023-06-14T00:30:19;122.57;;;86.75;;
44428;SDS011;30134;47.866;-4.222;2023-06-14T00:32:46;113.80;;;82.03;;
44428;SDS011;30134;47.866;-4.222;2023-06-14T00:35:12;101.25;;;71.93;;
44428;SDS011;30134;47.866;-4.222;2023-06-14T00:37:39;99.40;;;74.00;;
44428;SDS011;30134;47.866;-4.222;2023-06-14T00:40:05;90.70;;;63.92;;
44428;SDS011;30134;47.866;-4.222;2023-06-14T00:42:32;88.35;;;62.92;;
44428;SDS011;30134;47.866;-4.222;2023-06-14T00:44:59;81.20;;;58.80;;
44428;SDS011;30134;47.866;-4.222;2023-06-14T00:47:26;81.70;;;57.45;;
44428;SDS011;30134;47.866;-4.222;2023-06-14T00:49:53;74.47;;;54.70;;
44428;SDS011;30134;47.866;-4.222;2023-06-14T00:52:20;69.60;;;51.08;;
44428;SDS011;30134;47.866;-4.222;2023-06-14T00:54:49;66.97;;;48.20;;
44428;SDS011;30134;47.866;-4.222;2023-06-14T00:57:15;60.10;;;43.78;;
44428;SDS011;30134;47.866;-4.222;2023-06-14T00:59:43;58.75;;;42.95;;
44428;SDS011;30134;47.866;-4.222;2023-06-14T01:02:12;54.92;;;41.60;;
44428;SDS011;30134;47.866;-4.222;2023-06-14T01:04:46;50.53;;;39.30;;
44428;SDS011;30134;47.866;-4.222;2023-06-14T01:12:59;45.92;;;32.97;;
44428;SDS011;30134;47.866;-4.222;2023-06-14T01:15:43;38.65;;;29.92;;
44428;SDS011;30134;47.866;-4.222;2023-06-14T01:18:10;38.72;;;28.60;;
44428;SDS011;30134;47.866;-4.222;2023-06-14T01:23:10;32.75;;;24.13;;
44428;SDS011;30134;47.866;-4.222;2023-06-14T01:25:40;32.47;;;24.55;;
44428;SDS011;30134;47.866;-4.222;2023-06-14T01:28:09;30.52;;;22.27;;
44428;SDS011;30134;47.866;-4.222;2023-06-14T01:30:38;29.85;;;23.17;;
44428;SDS011;30134;47.866;-4.222;2023-06-14T01:33:13;28.27;;;21.60;;
44428;SDS011;30134;47.866;-4.222;2023-06-14T01:35:44;27.48;;;18.73;;
44428;SDS011;30134;47.866;-4.222;2023-06-14T01:38:15;24.25;;;19.17;;
44428;SDS011;30134;47.866;-4.222;2023-06-14T01:40:44;23.15;;;17.52;;
44428;SDS011;30134;47.866;-4.222;2023-06-14T01:43:13;24.65;;;18.40;;
44428;SDS011;30134;47.866;-4.222;2023-06-14T01:45:41;21.55;;;16.25;;
44428;SDS011;30134;47.866;-4.222;2023-06-14T01:48:09;19.23;;;15.88;;
44428;SDS011;30134;47.866;-4.222;2023-06-14T01:50:36;19.40;;;14.93;;
44428;SDS011;30134;47.866;-4.222;2023-06-14T01:53:02;18.63;;;14.27;;
44428;SDS011;30134;47.866;-4.222;2023-06-14T01:55:32;17.98;;;13.63;;
44428;SDS011;30134;47.866;-4.222;2023-06-14T01:58:02;16.13;;;13.32;;
44428;SDS011;30134;47.866;-4.222;2023-06-14T02:00:29;16.35;;;13.27;;
44428;SDS011;30134;47.866;-4.222;2023-06-14T02:02:56;15.23;;;12.60;;
44428;SDS011;30134;47.866;-4.222;2023-06-14T02:05:22;14.15;;;11.18;;
44428;SDS011;30134;47.866;-4.222;2023-06-14T02:07:49;12.55;;;10.73;;
44428;SDS011;30134;47.866;-4.222;2023-06-14T02:10:15;13.05;;;10.50;;
44428;SDS011;30134;47.866;-4.222;2023-06-14T02:12:43;12.70;;;10.20;;
44428;SDS011;30134;47.866;-4.222;2023-06-14T02:15:09;11.48;;;9.50;;
44428;SDS011;30134;47.866;-4.222;2023-06-14T02:17:50;11.55;;;9.20;;
44428;SDS011;30134;47.866;-4.222;2023-06-14T02:20:17;11.77;;;9.05;;
44428;SDS011;30134;47.866;-4.222;2023-06-14T02:22:43;11.45;;;9.18;;
44428;SDS011;30134;47.866;-4.222;2023-06-14T02:25:10;10.98;;;8.73;;
44428;SDS011;30134;47.866;-4.222;2023-06-14T02:27:36;11.55;;;8.68;;
44428;SDS011;30134;47.866;-4.222;2023-06-14T02:30:02;9.32;;;7.65;;
44428;SDS011;30134;47.866;-4.222;2023-06-14T02:32:30;11.35;;;7.63;;
44428;SDS011;30134;47.866;-4.222;2023-06-14T02:34:56;9.18;;;7.55;;
44428;SDS011;30134;47.866;-4.222;2023-06-14T02:37:23;8.85;;;7.25;;
44428;SDS011;30134;47.866;-4.222;2023-06-14T02:39:49;8.75;;;7.15;;
44428;SDS011;30134;47.866;-4.222;2023-06-14T02:42:15;8.65;;;7.18;;
44428;SDS011;30134;47.866;-4.222;2023-06-14T02:44:42;8.05;;;6.72;;
44428;SDS011;30134;47.866;-4.222;2023-06-14T02:47:10;7.55;;;6.45;;
44428;SDS011;30134;47.866;-4.222;2023-06-14T02:49:36;7.07;;;6.00;;
44428;SDS011;30134;47.866;-4.222;2023-06-14T02:52:02;7.97;;;6.07;;
44428;SDS011;30134;47.866;-4.222;2023-06-14T02:54:28;6.82;;;5.57;;
44428;SDS011;30134;47.866;-4.222;2023-06-14T02:56:54;8.10;;;5.13;;
44428;SDS011;30134;47.866;-4.222;2023-06-14T02:59:20;5.82;;;5.22;;
44428;SDS011;30134;47.866;-4.222;2023-06-14T03:01:50;5.50;;;5.00;;
44428;SDS011;30134;47.866;-4.222;2023-06-14T03:04:16;6.07;;;5.38;;
44428;SDS011;30134;47.866;-4.222;2023-06-14T03:06:42;6.28;;;5.32;;
44428;SDS011;30134;47.866;-4.222;2023-06-14T03:09:09;5.65;;;4.80;;
44428;SDS011;30134;47.866;-4.222;2023-06-14T03:11:35;5.00;;;4.20;;
44428;SDS011;30134;47.866;-4.222;2023-06-14T03:14:01;7.63;;;4.80;;
44428;SDS011;30134;47.866;-4.222;2023-06-14T03:16:29;4.70;;;4.30;;
44428;SDS011;30134;47.866;-4.222;2023-06-14T03:18:56;5.03;;;4.38;;
44428;SDS011;30134;47.866;-4.222;2023-06-14T03:21:22;4.65;;;4.05;;
44428;SDS011;30134;47.866;-4.222;2023-06-14T03:23:48;5.28;;;4.43;;
44428;SDS011;30134;47.866;-4.222;2023-06-14T03:26:14;4.65;;;4.15;;
44428;SDS011;30134;47.866;-4.222;2023-06-14T03:28:46;4.05;;;3.65;;
44428;SDS011;30134;47.866;-4.222;2023-06-14T03:31:14;4.70;;;3.90;;
44428;SDS011;30134;47.866;-4.222;2023-06-14T03:33:41;4.82;;;3.65;;
44428;SDS011;30134;47.866;-4.222;2023-06-14T03:36:07;5.60;;;4.40;;
44428;SDS011;30134;47.866;-4.222;2023-06-14T03:38:34;6.32;;;3.80;;
44428;SDS011;30134;47.866;-4.222;2023-06-14T03:41:00;3.95;;;3.53;;
44428;SDS011;30134;47.866;-4.222;2023-06-14T03:43:26;4.38;;;3.35;;
44428;SDS011;30134;47.866;-4.222;2023-06-14T03:45:53;4.38;;;3.75;;
44428;SDS011;30134;47.866;-4.222;2023-06-14T03:48:19;3.92;;;3.28;;
44428;SDS011;30134;47.866;-4.222;2023-06-14T03:50:45;4.07;;;3.30;;
44428;SDS011;30134;47.866;-4.222;2023-06-14T03:53:12;4.05;;;3.17;;
44428;SDS011;30134;47.866;-4.222;2023-06-14T03:55:38;3.78;;;3.33;;
44428;SDS011;30134;47.866;-4.222;2023-06-14T03:58:04;3.60;;;3.10;;
44428;SDS011;30134;47.866;-4.222;2023-06-14T04:00:31;5.45;;;3.28;;
44428;SDS011;30134;47.866;-4.222;2023-06-14T04:02:57;3.95;;;3.35;;
44428;SDS011;30134;47.866;-4.222;2023-06-14T04:05:23;3.90;;;3.47;;
44428;SDS011;30134;47.866;-4.222;2023-06-14T04:07:51;3.92;;;3.20;;
44428;SDS011;30134;47.866;-4.222;2023-06-14T04:10:21;3.20;;;2.90;;
44428;SDS011;30134;47.866;-4.222;2023-06-14T04:12:47;7.03;;;3.08;;
44428;SDS011;30134;47.866;-4.222;2023-06-14T04:15:14;3.45;;;3.15;;
44428;SDS011;30134;47.866;-4.222;2023-06-14T04:17:40;2.85;;;2.58;;
44428;SDS011;30134;47.866;-4.222;2023-06-14T04:20:06;2.90;;;2.60;;
44428;SDS011;30134;47.866;-4.222;2023-06-14T04:22:34;3.20;;;2.85;;
44428;SDS011;30134;47.866;-4.222;2023-06-14T04:25:01;3.00;;;2.70;;
44428;SDS011;30134;47.866;-4.222;2023-06-14T04:27:28;3.75;;;2.92;;
44428;SDS011;30134;47.866;-4.222;2023-06-14T04:29:56;3.78;;;3.08;;
44428;SDS011;30134;47.866;-4.222;2023-06-14T04:32:23;3.13;;;2.83;;
44428;SDS011;30134;47.866;-4.222;2023-06-14T04:34:52;3.03;;;2.72;;
44428;SDS011;30134;47.866;-4.222;2023-06-14T04:37:22;3.22;;;2.92;;
44428;SDS011;30134;47.866;-4.222;2023-06-14T04:39:48;3.08;;;2.78;;
44428;SDS011;30134;47.866;-4.222;2023-06-14T04:42:15;2.72;;;2.53;;
44428;SDS011;30134;47.866;-4.222;2023-06-14T04:44:44;3.42;;;3.13;;
44428;SDS011;30134;47.866;-4.222;2023-06-14T04:47:14;2.85;;;2.65;;
44428;SDS011;30134;47.866;-4.222;2023-06-14T04:49:41;3.88;;;2.88;;
44428;SDS011;30134;47.866;-4.222;2023-06-14T04:52:08;3.08;;;2.78;;
44428;SDS011;30134;47.866;-4.222;2023-06-14T04:54:35;3.13;;;2.78;;
44428;SDS011;30134;47.866;-4.222;2023-06-14T04:57:07;3.05;;;2.42;;
44428;SDS011;30134;47.866;-4.222;2023-06-14T04:59:39;3.30;;;3.00;;
44428;SDS011;30134;47.866;-4.222;2023-06-14T05:02:06;3.95;;;3.10;;
44428;SDS011;30134;47.866;-4.222;2023-06-14T05:04:33;3.47;;;2.72;;
44428;SDS011;30134;47.866;-4.222;2023-06-14T05:07:04;3.22;;;2.90;;
44428;SDS011;30134;47.866;-4.222;2023-06-14T05:09:34;3.28;;;2.97;;
44428;SDS011;30134;47.866;-4.222;2023-06-14T05:12:01;3.50;;;2.80;;
44428;SDS011;30134;47.866;-4.222;2023-06-14T05:14:28;3.72;;;3.10;;
44428;SDS011;30134;47.866;-4.222;2023-06-14T05:16:54;3.95;;;3.33;;
44428;SDS011;30134;47.866;-4.222;2023-06-14T05:19:20;3.88;;;3.15;;
44428;SDS011;30134;47.866;-4.222;2023-06-14T05:21:47;3.63;;;2.90;;
44428;SDS011;30134;47.866;-4.222;2023-06-14T05:24:13;3.95;;;3.45;;
44428;SDS011;30134;47.866;-4.222;2023-06-14T05:26:42;5.00;;;2.85;;
44428;SDS011;30134;47.866;-4.222;2023-06-14T05:29:08;2.92;;;2.65;;
44428;SDS011;30134;47.866;-4.222;2023-06-14T05:31:34;3.53;;;3.10;;
44428;SDS011;30134;47.866;-4.222;2023-06-14T05:34:00;3.55;;;2.97;;
44428;SDS011;30134;47.866;-4.222;2023-06-14T05:36:26;3.35;;;3.03;;
44428;SDS011;30134;47.866;-4.222;2023-06-14T05:38:53;3.45;;;2.90;;
44428;SDS011;30134;47.866;-4.222;2023-06-14T05:41:28;2.92;;;2.53;;
44428;SDS011;30134;47.866;-4.222;2023-06-14T05:43:54;4.97;;;2.92;;
44428;SDS011;30134;47.866;-4.222;2023-06-14T05:46:21;4.35;;;2.97;;
44428;SDS011;30134;47.866;-4.222;2023-06-14T05:48:53;3.20;;;2.90;;
44428;SDS011;30134;47.866;-4.222;2023-06-14T05:51:21;4.22;;;2.97;;
44428;SDS011;30134;47.866;-4.222;2023-06-14T05:53:50;3.20;;;2.80;;
44428;SDS011;30134;47.866;-4.222;2023-06-14T05:56:16;3.65;;;3.00;;
44428;SDS011;30134;47.866;-4.222;2023-06-14T05:58:43;2.97;;;2.70;;
44428;SDS011;30134;47.866;-4.222;2023-06-14T06:01:10;2.55;;;2.30;;
44428;SDS011;30134;47.866;-4.222;2023-06-14T06:03:38;4.47;;;2.60;;
44428;SDS011;30134;47.866;-4.222;2023-06-14T06:06:04;2.72;;;2.15;;
44428;SDS011;30134;47.866;-4.222;2023-06-14T06:08:31;3.05;;;2.72;;
44428;SDS011;30134;47.866;-4.222;2023-06-14T06:10:58;3.10;;;2.80;;
44428;SDS011;30134;47.866;-4.222;2023-06-14T06:13:25;2.47;;;2.28;;
44428;SDS011;30134;47.866;-4.222;2023-06-14T06:15:51;3.17;;;2.88;;
44428;SDS011;30134;47.866;-4.222;2023-06-14T06:18:17;2.47;;;2.28;;
44428;SDS011;30134;47.866;-4.222;2023-06-14T06:20:43;2.90;;;2.60;;
44428;SDS011;30134;47.866;-4.222;2023-06-14T06:23:11;2.80;;;2.33;;
44428;SDS011;30134;47.866;-4.222;2023-06-14T06:25:37;2.72;;;2.53;;
44428;SDS011;30134;47.866;-4.222;2023-06-14T06:28:03;2.72;;;2.45;;
44428;SDS011;30134;47.866;-4.222;2023-06-14T06:30:29;3.10;;;2.50;;
44428;SDS011;30134;47.866;-4.222;2023-06-14T06:32:55;2.90;;;2.60;;
44428;SDS011;30134;47.866;-4.222;2023-06-14T06:35:23;2.53;;;2.33;;
44428;SDS011;30134;47.866;-4.222;2023-06-14T06:37:49;3.10;;;2.50;;
44428;SDS011;30134;47.866;-4.222;2023-06-14T06:40:15;3.00;;;2.70;;
44428;SDS011;30134;47.866;-4.222;2023-06-14T06:42:41;3.05;;;2.75;;
44428;SDS011;30134;47.866;-4.222;2023-06-14T06:45:07;3.10;;;2.65;;
44428;SDS011;30134;47.866;-4.222;2023-06-14T06:47:34;3.80;;;2.60;;
44428;SDS011;30134;47.866;-4.222;2023-06-14T06:50:00;3.00;;;2.67;;
44428;SDS011;30134;47.866;-4.222;2023-06-14T06:52:26;2.35;;;2.08;;
44428;SDS011;30134;47.866;-4.222;2023-06-14T06:54:52;2.67;;;2.47;;
44428;SDS011;30134;47.866;-4.222;2023-06-14T06:57:21;2.78;;;2.58;;
44428;SDS011;30134;47.866;-4.222;2023-06-14T06:59:50;2.67;;;2.47;;
44428;SDS011;30134;47.866;-4.222;2023-06-14T07:02:16;3.38;;;2.40;;
44428;SDS011;30134;47.866;-4.222;2023-06-14T07:04:43;2.88;;;2.53;;
44428;SDS011;30134;47.866;-4.222;2023-06-14T07:07:09;2.38;;;2.17;;
44428;SDS011;30134;47.866;-4.222;2023-06-14T07:09:35;2.65;;;2.20;;
44428;SDS011;30134;47.866;-4.222;2023-06-14T07:12:01;2.10;;;1.90;;
44428;SDS011;30134;47.866;-4.222;2023-06-14T07:14:27;2.58;;;2.33;;
44428;SDS011;30134;47.866;-4.222;2023-06-14T07:16:55;2.72;;;2.25;;
44428;SDS011;30134;47.866;-4.222;2023-06-14T07:19:21;2.70;;;2.30;;
44428;SDS011;30134;47.866;-4.222;2023-06-14T07:21:47;2.47;;;2.28;;
44428;SDS011;30134;47.866;-4.222;2023-06-14T07:24:13;2.28;;;2.08;;
44428;SDS011;30134;47.866;-4.222;2023-06-14T07:26:40;2.58;;;2.28;;
44428;SDS011;30134;47.866;-4.222;2023-06-14T07:29:06;4.82;;;2.55;;
44428;SDS011;30134;47.866;-4.222;2023-06-14T07:31:37;2.88;;;2.10;;
44428;SDS011;30134;47.866;-4.222;2023-06-14T07:34:06;5.80;;;2.15;;
44428;SDS011;30134;47.866;-4.222;2023-06-14T07:36:32;2.78;;;2.50;;
44428;SDS011;30134;47.866;-4.222;2023-06-14T07:38:58;3.67;;;2.60;;
44428;SDS011;30134;47.866;-4.222;2023-06-14T07:41:24;2.83;;;2.33;;
44428;SDS011;30134;47.866;-4.222;2023-06-14T07:43:50;3.22;;;2.20;;
44428;SDS011;30134;47.866;-4.222;2023-06-14T07:46:16;2.30;;;2.10;;
44428;SDS011;30134;47.866;-4.222;2023-06-14T07:48:43;3.17;;;2.20;;
44428;SDS011;30134;47.866;-4.222;2023-06-14T07:51:09;3.33;;;2.38;;
44428;SDS011;30134;47.866;-4.222;2023-06-14T07:53:35;5.63;;;2.58;;
44428;SDS011;30134;47.866;-4.222;2023-06-14T07:56:01;4.38;;;2.45;;
44428;SDS011;30134;47.866;-4.222;2023-06-14T07:58:27;4.07;;;2.42;;
44428;SDS011;30134;47.866;-4.222;2023-06-14T08:00:53;5.88;;;2.80;;
44428;SDS011;30134;47.866;-4.222;2023-06-14T08:03:19;7.28;;;4.18;;
44428;SDS011;30134;47.866;-4.222;2023-06-14T08:05:45;72.70;;;44.53;;
44428;SDS011;30134;47.866;-4.222;2023-06-14T08:08:11;128.95;;;83.78;;
44428;SDS011;30134;47.866;-4.222;2023-06-14T08:10:38;140.10;;;95.90;;
44428;SDS011;30134;47.866;-4.222;2023-06-14T08:13:03;41.17;;;22.35;;
44428;SDS011;30134;47.866;-4.222;2023-06-14T08:15:29;22.85;;;17.77;;
44428;SDS011;30134;47.866;-4.222;2023-06-14T08:17:56;18.45;;;13.50;;
44428;SDS011;30134;47.866;-4.222;2023-06-14T08:20:22;16.33;;;10.38;;
44428;SDS011;30134;47.866;-4.222;2023-06-14T08:22:49;12.07;;;8.63;;
44428;SDS011;30134;47.866;-4.222;2023-06-14T08:25:20;10.25;;;7.00;;
44428;SDS011;30134;47.866;-4.222;2023-06-14T08:27:47;9.75;;;6.35;;
44428;SDS011;30134;47.866;-4.222;2023-06-14T08:30:13;6.75;;;4.60;;
44428;SDS011;30134;47.866;-4.222;2023-06-14T08:32:39;6.60;;;4.00;;
44428;SDS011;30134;47.866;-4.222;2023-06-14T08:35:05;7.68;;;4.10;;
44428;SDS011;30134;47.866;-4.222;2023-06-14T08:37:32;4.55;;;3.03;;
44428;SDS011;30134;47.866;-4.222;2023-06-14T08:39:58;4.45;;;2.97;;
44428;SDS011;30134;47.866;-4.222;2023-06-14T08:42:24;3.47;;;2.80;;
44428;SDS011;30134;47.866;-4.222;2023-06-14T08:44:50;4.70;;;3.17;;
44428;SDS011;30134;47.866;-4.222;2023-06-14T08:47:16;4.10;;;2.88;;
44428;SDS011;30134;47.866;-4.222;2023-06-14T08:49:45;4.63;;;3.00;;
44428;SDS011;30134;47.866;-4.222;2023-06-14T08:52:13;3.90;;;2.85;;
44428;SDS011;30134;47.866;-4.222;2023-06-14T08:54:43;3.65;;;2.78;;
44428;SDS011;30134;47.866;-4.222;2023-06-14T08:57:13;2.92;;;2.38;;
44428;SDS011;30134;47.866;-4.222;2023-06-14T08:59:44;3.40;;;2.47;;
44428;SDS011;30134;47.866;-4.222;2023-06-14T09:02:17;3.55;;;2.60;;
44428;SDS011;30134;47.866;-4.222;2023-06-14T09:04:47;2.92;;;2.53;;
44428;SDS011;30134;47.866;-4.222;2023-06-14T09:07:14;2.88;;;2.53;;
44428;SDS011;30134;47.866;-4.222;2023-06-14T09:09:41;4.30;;;2.65;;
44428;SDS011;30134;47.866;-4.222;2023-06-14T09:12:08;5.30;;;2.67;;
44428;SDS011;30134;47.866;-4.222;2023-06-14T09:14:36;3.00;;;2.40;;
44428;SDS011;30134;47.866;-4.222;2023-06-14T09:17:05;2.78;;;2.50;;
44428;SDS011;30134;47.866;-4.222;2023-06-14T09:19:31;2.67;;;2.47;;
44428;SDS011;30134;47.866;-4.222;2023-06-14T09:21:58;4.07;;;2.60;;
44428;SDS011;30134;47.866;-4.222;2023-06-14T09:24:25;5.05;;;2.80;;
44428;SDS011;30134;47.866;-4.222;2023-06-14T09:26:51;5.88;;;2.50;;
44428;SDS011;30134;47.866;-4.222;2023-06-14T09:29:18;2.80;;;2.50;;
44428;SDS011;30134;47.866;-4.222;2023-06-14T09:31:47;3.42;;;2.88;;
44428;SDS011;30134;47.866;-4.222;2023-06-14T09:34:13;3.42;;;2.53;;
44428;SDS011;30134;47.866;-4.222;2023-06-14T09:36:44;3.55;;;2.67;;
44428;SDS011;30134;47.866;-4.222;2023-06-14T09:39:10;245.98;;;153.52;;
44428;SDS011;30134;47.866;-4.222;2023-06-14T09:41:42;189.38;;;124.22;;
44428;SDS011;30134;47.866;-4.222;2023-06-14T09:44:09;114.70;;;75.00;;
44428;SDS011;30134;47.866;-4.222;2023-06-14T09:46:37;113.00;;;75.82;;
44428;SDS011;30134;47.866;-4.222;2023-06-14T09:49:03;88.47;;;59.85;;
44428;SDS011;30134;47.866;-4.222;2023-06-14T09:51:31;31.98;;;22.55;;
44428;SDS011;30134;47.866;-4.222;2023-06-14T09:54:00;19.05;;;13.52;;
44428;SDS011;30134;47.866;-4.222;2023-06-14T09:56:40;16.58;;;12.60;;
44428;SDS011;30134;47.866;-4.222;2023-06-14T09:59:09;12.75;;;9.75;;
44428;SDS011;30134;47.866;-4.222;2023-06-14T10:01:41;7.93;;;6.03;;
44428;SDS011;30134;47.866;-4.222;2023-06-14T10:04:08;6.97;;;4.90;;
44428;SDS011;30134;47.866;-4.222;2023-06-14T10:06:36;5.15;;;3.88;;
44428;SDS011;30134;47.866;-4.222;2023-06-14T10:09:10;5.80;;;3.90;;
44428;SDS011;30134;47.866;-4.222;2023-06-14T10:11:37;5.20;;;3.92;;
44428;SDS011;30134;47.866;-4.222;2023-06-14T10:14:09;6.30;;;3.60;;
44428;SDS011;30134;47.866;-4.222;2023-06-14T10:19:34;3.53;;;3.20;;
44428;SDS011;30134;47.866;-4.222;2023-06-14T10:22:22;4.35;;;3.13;;
44428;SDS011;30134;47.866;-4.222;2023-06-14T10:24:57;6.45;;;3.47;;
44428;SDS011;30134;47.866;-4.222;2023-06-14T10:27:24;4.38;;;3.22;;
44428;SDS011;30134;47.866;-4.222;2023-06-14T10:32:20;6.25;;;4.30;;
44428;SDS011;30134;47.866;-4.222;2023-06-14T10:34:53;5.13;;;3.90;;
44428;SDS011;30134;47.866;-4.222;2023-06-14T10:37:21;5.15;;;3.58;;
44428;SDS011;30134;47.866;-4.222;2023-06-14T10:39:49;5.70;;;3.80;;
44428;SDS011;30134;47.866;-4.222;2023-06-14T10:42:16;3.90;;;3.50;;
44428;SDS011;30134;47.866;-4.222;2023-06-14T10:44:43;4.43;;;3.42;;
44428;SDS011;30134;47.866;-4.222;2023-06-14T10:52:37;5.20;;;4.20;;
44428;SDS011;30134;47.866;-4.222;2023-06-14T10:55:07;5.95;;;4.05;;
44428;SDS011;30134;47.866;-4.222;2023-06-14T10:57:51;7.82;;;4.93;;
44428;SDS011;30134;47.866;-4.222;2023-06-14T11:00:25;7.70;;;4.00;;
44428;SDS011;30134;47.866;-4.222;2023-06-14T11:06:13;5.38;;;4.32;;
44428;SDS011;30134;47.866;-4.222;2023-06-14T11:08:49;6.88;;;5.18;;
44428;SDS011;30134;47.866;-4.222;2023-06-14T11:11:25;12.60;;;4.93;;
44428;SDS011;30134;47.866;-4.222;2023-06-14T11:13:59;4.97;;;4.13;;
44428;SDS011;30134;47.866;-4.222;2023-06-14T11:16:26;5.28;;;4.32;;
44428;SDS011;30134;47.866;-4.222;2023-06-14T11:18:53;5.80;;;4.40;;
44428;SDS011;30134;47.866;-4.222;2023-06-14T11:21:20;8.82;;;4.50;;
44428;SDS011;30134;47.866;-4.222;2023-06-14T11:23:52;8.73;;;4.90;;
44428;SDS011;30134;47.866;-4.222;2023-06-14T11:26:29;7.90;;;4.45;;
44428;SDS011;30134;47.866;-4.222;2023-06-14T11:28:59;4.82;;;4.00;;
44428;SDS011;30134;47.866;-4.222;2023-06-14T11:31:26;5.70;;;4.32;;
44428;SDS011;30134;47.866;-4.222;2023-06-14T11:33:54;5.20;;;4.22;;
44428;SDS011;30134;47.866;-4.222;2023-06-14T11:36:27;5.18;;;4.10;;
44428;SDS011;30134;47.866;-4.222;2023-06-14T11:39:02;7.93;;;4.68;;
44428;SDS011;30134;47.866;-4.222;2023-06-14T11:41:32;8.13;;;4.60;;
44428;SDS011;30134;47.866;-4.222;2023-06-14T11:44:02;4.65;;;4.00;;
44428;SDS011;30134;47.866;-4.222;2023-06-14T11:46:28;7.47;;;4.05;;
44428;SDS011;30134;47.866;-4.222;2023-06-14T11:48:55;5.57;;;3.88;;
44428;SDS011;30134;47.866;-4.222;2023-06-14T11:51:21;22.02;;;15.48;;
44428;SDS011;30134;47.866;-4.222;2023-06-14T11:53:47;17.58;;;13.65;;
44428;SDS011;30134;47.866;-4.222;2023-06-14T11:56:13;27.15;;;19.50;;
44428;SDS011;30134;47.866;-4.222;2023-06-14T11:58:41;19.90;;;15.15;;
44428;SDS011;30134;47.866;-4.222;2023-06-14T12:01:09;15.07;;;11.40;;
44428;SDS011;30134;47.866;-4.222;2023-06-14T12:03:39;12.38;;;8.52;;
44428;SDS011;30134;47.866;-4.222;2023-06-14T12:06:14;10.15;;;7.50;;
44428;SDS011;30134;47.866;-4.222;2023-06-14T12:08:42;9.00;;;6.85;;
44428;SDS011;30134;47.866;-4.222;2023-06-14T12:11:11;7.57;;;6.20;;
44428;SDS011;30134;47.866;-4.222;2023-06-14T12:13:41;9.30;;;5.63;;
44428;SDS011;30134;47.866;-4.222;2023-06-14T12:16:08;6.18;;;5.22;;
44428;SDS011;30134;47.866;-4.222;2023-06-14T12:18:37;9.32;;;4.93;;
44428;SDS011;30134;47.866;-4.222;2023-06-14T12:21:05;6.70;;;4.90;;
44428;SDS011;30134;47.866;-4.222;2023-06-14T12:23:48;7.20;;;4.80;;
44428;SDS011;30134;47.866;-4.222;2023-06-14T12:26:16;6.30;;;4.30;;
44428;SDS011;30134;47.866;-4.222;2023-06-14T12:28:44;4.95;;;4.45;;
44428;SDS011;30134;47.866;-4.222;2023-06-14T12:31:12;7.10;;;5.15;;
44428;SDS011;30134;47.866;-4.222;2023-06-14T12:33:41;7.80;;;4.68;;
44428;SDS011;30134;47.866;-4.222;2023-06-14T12:36:08;5.85;;;4.40;;
44428;SDS011;30134;47.866;-4.222;2023-06-14T12:38:35;7.05;;;4.88;;
44428;SDS011;30134;47.866;-4.222;2023-06-14T12:41:02;9.05;;;4.88;;
44428;SDS011;30134;47.866;-4.222;2023-06-14T12:43:29;8.40;;;6.63;;
44428;SDS011;30134;47.866;-4.222;2023-06-14T12:45:55;10.93;;;5.93;;
44428;SDS011;30134;47.866;-4.222;2023-06-14T12:48:21;6.70;;;5.18;;
44428;SDS011;30134;47.866;-4.222;2023-06-14T12:50:51;7.75;;;5.35;;
44428;SDS011;30134;47.866;-4.222;2023-06-14T12:53:17;8.38;;;5.50;;
44428;SDS011;30134;47.866;-4.222;2023-06-14T12:55:45;6.00;;;5.40;;
44428;SDS011;30134;47.866;-4.222;2023-06-14T12:58:11;7.00;;;5.30;;
44428;SDS011;30134;47.866;-4.222;2023-06-14T13:00:42;7.88;;;5.75;;
44428;SDS011;30134;47.866;-4.222;2023-06-14T13:03:10;6.35;;;5.35;;
44428;SDS011;30134;47.866;-4.222;2023-06-14T13:05:36;8.48;;;5.50;;
44428;SDS011;30134;47.866;-4.222;2023-06-14T13:08:06;8.73;;;5.80;;
44428;SDS011;30134;47.866;-4.222;2023-06-14T13:10:36;9.30;;;5.55;;
44428;SDS011;30134;47.866;-4.222;2023-06-14T13:13:02;7.00;;;5.35;;
44428;SDS011;30134;47.866;-4.222;2023-06-14T13:15:29;7.38;;;5.40;;
44428;SDS011;30134;47.866;-4.222;2023-06-14T13:17:55;7.80;;;5.38;;
44428;SDS011;30134;47.866;-4.222;2023-06-14T13:20:22;7.70;;;5.43;;
44428;SDS011;30134;47.866;-4.222;2023-06-14T13:22:48;5.85;;;5.25;;
44428;SDS011;30134;47.866;-4.222;2023-06-14T13:25:14;7.10;;;5.35;;
44428;SDS011;30134;47.866;-4.222;2023-06-14T13:27:40;9.50;;;5.60;;
44428;SDS011;30134;47.866;-4.222;2023-06-14T13:30:07;7.45;;;5.72;;
44428;SDS011;30134;47.866;-4.222;2023-06-14T13:32:34;7.57;;;5.90;;
44428;SDS011;30134;47.866;-4.222;2023-06-14T13:35:00;9.05;;;6.30;;
44428;SDS011;30134;47.866;-4.222;2023-06-14T13:37:26;8.07;;;5.93;;
44428;SDS011;30134;47.866;-4.222;2023-06-14T13:39:53;8.40;;;5.97;;
44428;SDS011;30134;47.866;-4.222;2023-06-14T13:42:20;8.20;;;5.93;;
44428;SDS011;30134;47.866;-4.222;2023-06-14T13:44:46;7.88;;;5.65;;
44428;SDS011;30134;47.866;-4.222;2023-06-14T13:47:12;7.95;;;6.35;;
44428;SDS011;30134;47.866;-4.222;2023-06-14T13:49:38;8.07;;;6.40;;
44428;SDS011;30134;47.866;-4.222;2023-06-14T13:52:05;8.40;;;5.65;;
44428;SDS011;30134;47.866;-4.222;2023-06-14T13:54:31;7.68;;;6.15;;
44428;SDS011;30134;47.866;-4.222;2023-06-14T13:56:57;10.40;;;6.60;;
44428;SDS011;30134;47.866;-4.222;2023-06-14T13:59:23;8.90;;;6.68;;
44428;SDS011;30134;47.866;-4.222;2023-06-14T14:01:49;9.77;;;6.28;;
44428;SDS011;30134;47.866;-4.222;2023-06-14T14:04:16;6.95;;;6.10;;
44428;SDS011;30134;47.866;-4.222;2023-06-14T14:06:42;7.10;;;5.78;;
44428;SDS011;30134;47.866;-4.222;2023-06-14T14:09:09;6.47;;;5.43;;
44428;SDS011;30134;47.866;-4.222;2023-06-14T14:11:35;8.48;;;5.20;;
44428;SDS011;30134;47.866;-4.222;2023-06-14T14:14:01;14.63;;;6.25;;
44428;SDS011;30134;47.866;-4.222;2023-06-14T14:16:27;6.97;;;5.50;;
44428;SDS011;30134;47.866;-4.222;2023-06-14T14:18:55;7.15;;;6.13;;
44428;SDS011;30134;47.866;-4.222;2023-06-14T14:21:21;10.05;;;7.18;;
44428;SDS011;30134;47.866;-4.222;2023-06-14T14:23:47;9.13;;;7.10;;
44428;SDS011;30134;47.866;-4.222;2023-06-14T14:26:14;9.05;;;6.97;;
44428;SDS011;30134;47.866;-4.222;2023-06-14T14:28:41;9.80;;;6.35;;
44428;SDS011;30134;47.866;-4.222;2023-06-14T14:31:07;9.25;;;6.38;;
44428;SDS011;30134;47.866;-4.222;2023-06-14T14:33:33;8.77;;;6.47;;
44428;SDS011;30134;47.866;-4.222;2023-06-14T14:36:00;9.52;;;6.22;;
44428;SDS011;30134;47.866;-4.222;2023-06-14T14:38:29;8.10;;;5.63;;
44428;SDS011;30134;47.866;-4.222;2023-06-14T14:40:55;8.13;;;5.95;;
44428;SDS011;30134;47.866;-4.222;2023-06-14T14:43:21;7.65;;;6.10;;
44428;SDS011;30134;47.866;-4.222;2023-06-14T14:45:48;7.07;;;6.05;;
44428;SDS011;30134;47.866;-4.222;2023-06-14T14:48:14;8.93;;;6.72;;
44428;SDS011;30134;47.866;-4.222;2023-06-14T14:50:40;10.95;;;6.80;;
44428;SDS011;30134;47.866;-4.222;2023-06-14T14:53:07;11.02;;;6.70;;